DABB/AAE METAR and TAF weather

Enter ICAO airport designator
Station Type Date Time Source
DABB METAR 2021/09/28 03:00 UTC NOAA

DABB 280300Z 21003KT 8000 NSC 20/12 Q1019


Station Type Date Time Source
DABB Decoded METAR 2021/09/28 03:00 UTC NOAA

Annaba, Algeria (DABB) 36-50N 007-49E 4M
Sep 27, 2021 - 11:00 PM EDT / 2021.09.28 0300 UTC
Wind: from the SSW (210 degrees) at 3 MPH (3 KT):0
Visibility: 4 mile(s):0
Temperature: 68 F (20 C)
Dew Point: 53 F (12 C)
Relative Humidity: 59%
Pressure (altimeter): 30.09 in. Hg (1019 hPa)
ob: DABB 280300Z 21003KT 8000 NSC 20/12 Q1019
cycle: 3

Station Type Date Time Source
DABB TAF 2021/09/27 18:33 UTC NOAA

TAF DABB 271700Z 2718/2818 01012KT 8000 FEW023 SCT040 PROB30
TEMPO 2718/2722 FEW023CB
BECMG 2720/2722 24008KT PROB30
TEMPO 2800/2806 2000 BR BKN008

Example: see airport list